sensor_id;sensor_type;location;lat;lon;timestamp;P1;P2;P0
77892;PMS5003;67087;50.094;14.338;2023-03-20T00:02:17;19;19;
77892;PMS5003;67087;50.094;14.338;2023-03-20T00:04:42;17;17;
77892;PMS5003;67087;50.094;14.338;2023-03-20T00:07:07;18;18;
77892;PMS5003;67087;50.094;14.338;2023-03-20T00:09:33;17;17;
77892;PMS5003;67087;50.094;14.338;2023-03-20T00:11:58;18;18;
77892;PMS5003;67087;50.094;14.338;2023-03-20T00:14:23;22;21;
77892;PMS5003;67087;50.094;14.338;2023-03-20T00:16:49;20;19;
77892;PMS5003;67087;50.094;14.338;2023-03-20T00:19:14;15;15;
77892;PMS5003;67087;50.094;14.338;2023-03-20T00:21:39;18;17;
77892;PMS5003;67087;50.094;14.338;2023-03-20T00:24:04;18;18;
77892;PMS5003;67087;50.094;14.338;2023-03-20T00:26:30;20;19;
77892;PMS5003;67087;50.094;14.338;2023-03-20T00:28:54;19;18;
77892;PMS5003;67087;50.094;14.338;2023-03-20T00:31:22;19;19;
77892;PMS5003;67087;50.094;14.338;2023-03-20T00:33:45;18;18;
77892;PMS5003;67087;50.094;14.338;2023-03-20T00:36:11;17;17;
77892;PMS5003;67087;50.094;14.338;2023-03-20T00:38:36;21;20;
77892;PMS5003;67087;50.094;14.338;2023-03-20T00:41:02;22;20;
77892;PMS5003;67087;50.094;14.338;2023-03-20T00:43:27;20;18;
77892;PMS5003;67087;50.094;14.338;2023-03-20T00:45:52;19;18;
77892;PMS5003;67087;50.094;14.338;2023-03-20T00:48:17;16;16;
77892;PMS5003;67087;50.094;14.338;2023-03-20T00:50:42;18;16;
77892;PMS5003;67087;50.094;14.338;2023-03-20T00:53:08;19;19;
77892;PMS5003;67087;50.094;14.338;2023-03-20T00:55:33;17;17;
77892;PMS5003;67087;50.094;14.338;2023-03-20T00:57:59;18;17;
77892;PMS5003;67087;50.094;14.338;2023-03-20T01:00:25;19;18;
77892;PMS5003;67087;50.094;14.338;2023-03-20T01:02:50;21;20;
77892;PMS5003;67087;50.094;14.338;2023-03-20T01:05:15;17;17;
77892;PMS5003;67087;50.094;14.338;2023-03-20T01:07:40;19;18;
77892;PMS5003;67087;50.094;14.338;2023-03-20T01:10:05;19;19;
77892;PMS5003;67087;50.094;14.338;2023-03-20T01:12:30;20;18;
77892;PMS5003;67087;50.094;14.338;2023-03-20T01:14:56;20;18;
77892;PMS5003;67087;50.094;14.338;2023-03-20T01:17:22;15;15;
77892;PMS5003;67087;50.094;14.338;2023-03-20T01:19:47;17;17;
77892;PMS5003;67087;50.094;14.338;2023-03-20T01:22:12;18;17;
77892;PMS5003;67087;50.094;14.338;2023-03-20T01:24:38;18;17;
77892;PMS5003;67087;50.094;14.338;2023-03-20T01:27:04;18;18;
77892;PMS5003;67087;50.094;14.338;2023-03-20T01:29:29;17;17;
77892;PMS5003;67087;50.094;14.338;2023-03-20T01:31:54;17;17;
77892;PMS5003;67087;50.094;14.338;2023-03-20T01:34:19;16;16;
77892;PMS5003;67087;50.094;14.338;2023-03-20T01:36:44;18;17;
77892;PMS5003;67087;50.094;14.338;2023-03-20T01:39:09;18;18;
77892;PMS5003;67087;50.094;14.338;2023-03-20T01:41:35;19;18;
77892;PMS5003;67087;50.094;14.338;2023-03-20T01:44:00;15;15;
77892;PMS5003;67087;50.094;14.338;2023-03-20T01:46:26;15;14;
77892;PMS5003;67087;50.094;14.338;2023-03-20T01:48:55;19;18;
77892;PMS5003;67087;50.094;14.338;2023-03-20T01:51:16;20;20;
77892;PMS5003;67087;50.094;14.338;2023-03-20T01:53:41;21;19;
77892;PMS5003;67087;50.094;14.338;2023-03-20T01:56:06;21;19;
77892;PMS5003;67087;50.094;14.338;2023-03-20T01:58:31;16;16;
77892;PMS5003;67087;50.094;14.338;2023-03-20T02:00:56;20;20;
77892;PMS5003;67087;50.094;14.338;2023-03-20T02:03:22;15;15;
77892;PMS5003;67087;50.094;14.338;2023-03-20T02:05:47;18;17;
77892;PMS5003;67087;50.094;14.338;2023-03-20T02:08:16;20;19;
77892;PMS5003;67087;50.094;14.338;2023-03-20T02:10:38;17;17;
77892;PMS5003;67087;50.094;14.338;2023-03-20T02:13:03;16;15;
77892;PMS5003;67087;50.094;14.338;2023-03-20T02:15:29;16;16;
77892;PMS5003;67087;50.094;14.338;2023-03-20T02:17:54;16;16;
77892;PMS5003;67087;50.094;14.338;2023-03-20T02:20:22;13;13;
77892;PMS5003;67087;50.094;14.338;2023-03-20T02:25:15;19;18;
77892;PMS5003;67087;50.094;14.338;2023-03-20T02:27:37;15;15;
77892;PMS5003;67087;50.094;14.338;2023-03-20T02:30:09;17;17;
77892;PMS5003;67087;50.094;14.338;2023-03-20T02:32:37;16;16;
77892;PMS5003;67087;50.094;14.338;2023-03-20T02:34:55;14;14;
77892;PMS5003;67087;50.094;14.338;2023-03-20T02:37:23;17;17;
77892;PMS5003;67087;50.094;14.338;2023-03-20T02:39:46;17;17;
77892;PMS5003;67087;50.094;14.338;2023-03-20T02:42:10;17;16;
77892;PMS5003;67087;50.094;14.338;2023-03-20T02:44:36;17;16;
77892;PMS5003;67087;50.094;14.338;2023-03-20T02:47:02;19;18;
77892;PMS5003;67087;50.094;14.338;2023-03-20T02:49:30;14;14;
77892;PMS5003;67087;50.094;14.338;2023-03-20T02:51:53;19;17;
77892;PMS5003;67087;50.094;14.338;2023-03-20T02:54:18;16;16;
77892;PMS5003;67087;50.094;14.338;2023-03-20T02:56:44;17;17;
77892;PMS5003;67087;50.094;14.338;2023-03-20T02:59:10;16;15;
77892;PMS5003;67087;50.094;14.338;2023-03-20T03:01:34;19;17;
77892;PMS5003;67087;50.094;14.338;2023-03-20T03:03:59;14;13;
77892;PMS5003;67087;50.094;14.338;2023-03-20T03:06:24;15;14;
77892;PMS5003;67087;50.094;14.338;2023-03-20T03:08:49;15;15;
77892;PMS5003;67087;50.094;14.338;2023-03-20T03:11:14;15;15;
77892;PMS5003;67087;50.094;14.338;2023-03-20T03:13:40;19;19;
77892;PMS5003;67087;50.094;14.338;2023-03-20T03:16:05;17;17;
77892;PMS5003;67087;50.094;14.338;2023-03-20T03:18:29;13;12;
77892;PMS5003;67087;50.094;14.338;2023-03-20T03:20:56;17;16;
77892;PMS5003;67087;50.094;14.338;2023-03-20T03:23:22;17;16;
77892;PMS5003;67087;50.094;14.338;2023-03-20T03:25:45;14;14;
77892;PMS5003;67087;50.094;14.338;2023-03-20T03:28:13;18;18;
77892;PMS5003;67087;50.094;14.338;2023-03-20T03:30:36;16;16;
77892;PMS5003;67087;50.094;14.338;2023-03-20T03:33:07;14;14;
77892;PMS5003;67087;50.094;14.338;2023-03-20T03:35:27;19;18;
77892;PMS5003;67087;50.094;14.338;2023-03-20T03:37:54;17;17;
77892;PMS5003;67087;50.094;14.338;2023-03-20T03:40:19;14;14;
77892;PMS5003;67087;50.094;14.338;2023-03-20T03:42:46;20;18;
77892;PMS5003;67087;50.094;14.338;2023-03-20T03:45:09;19;17;
77892;PMS5003;67087;50.094;14.338;2023-03-20T03:47:35;13;13;
77892;PMS5003;67087;50.094;14.338;2023-03-20T03:50:01;15;15;
77892;PMS5003;67087;50.094;14.338;2023-03-20T03:52:25;15;15;
77892;PMS5003;67087;50.094;14.338;2023-03-20T03:54:51;14;13;
77892;PMS5003;67087;50.094;14.338;2023-03-20T03:57:17;17;17;
77892;PMS5003;67087;50.094;14.338;2023-03-20T03:59:42;13;13;
77892;PMS5003;67087;50.094;14.338;2023-03-20T04:02:07;14;14;
77892;PMS5003;67087;50.094;14.338;2023-03-20T04:04:32;17;16;
77892;PMS5003;67087;50.094;14.338;2023-03-20T04:06:57;16;15;
77892;PMS5003;67087;50.094;14.338;2023-03-20T04:09:23;12;12;
77892;PMS5003;67087;50.094;14.338;2023-03-20T04:11:50;14;12;
77892;PMS5003;67087;50.094;14.338;2023-03-20T04:14:14;16;15;
77892;PMS5003;67087;50.094;14.338;2023-03-20T04:16:39;15;15;
77892;PMS5003;67087;50.094;14.338;2023-03-20T04:19:05;17;15;
77892;PMS5003;67087;50.094;14.338;2023-03-20T04:21:30;15;14;
77892;PMS5003;67087;50.094;14.338;2023-03-20T04:23:55;15;15;
77892;PMS5003;67087;50.094;14.338;2023-03-20T04:26:21;17;15;
77892;PMS5003;67087;50.094;14.338;2023-03-20T04:28:46;13;13;
77892;PMS5003;67087;50.094;14.338;2023-03-20T04:31:12;16;14;
77892;PMS5003;67087;50.094;14.338;2023-03-20T04:33:37;14;14;
77892;PMS5003;67087;50.094;14.338;2023-03-20T04:36:03;16;15;
77892;PMS5003;67087;50.094;14.338;2023-03-20T04:38:28;17;16;
77892;PMS5003;67087;50.094;14.338;2023-03-20T04:40:54;16;15;
77892;PMS5003;67087;50.094;14.338;2023-03-20T04:43:19;14;12;
77892;PMS5003;67087;50.094;14.338;2023-03-20T04:45:44;15;13;
77892;PMS5003;67087;50.094;14.338;2023-03-20T04:48:09;12;12;
77892;PMS5003;67087;50.094;14.338;2023-03-20T04:50:35;16;16;
77892;PMS5003;67087;50.094;14.338;2023-03-20T04:53:01;14;13;
77892;PMS5003;67087;50.094;14.338;2023-03-20T04:55:26;15;14;
77892;PMS5003;67087;50.094;14.338;2023-03-20T04:57:52;13;12;
77892;PMS5003;67087;50.094;14.338;2023-03-20T05:00:17;14;14;
77892;PMS5003;67087;50.094;14.338;2023-03-20T05:02:42;15;14;
77892;PMS5003;67087;50.094;14.338;2023-03-20T05:05:08;11;11;
77892;PMS5003;67087;50.094;14.338;2023-03-20T05:07:33;12;12;
77892;PMS5003;67087;50.094;14.338;2023-03-20T05:09:59;15;14;
77892;PMS5003;67087;50.094;14.338;2023-03-20T05:12:24;14;14;
77892;PMS5003;67087;50.094;14.338;2023-03-20T05:14:49;12;12;
77892;PMS5003;67087;50.094;14.338;2023-03-20T05:17:14;12;12;
77892;PMS5003;67087;50.094;14.338;2023-03-20T05:19:40;13;13;
77892;PMS5003;67087;50.094;14.338;2023-03-20T05:22:05;11;10;
77892;PMS5003;67087;50.094;14.338;2023-03-20T05:24:30;11;11;
77892;PMS5003;67087;50.094;14.338;2023-03-20T05:26:56;13;13;
77892;PMS5003;67087;50.094;14.338;2023-03-20T05:29:21;12;11;
77892;PMS5003;67087;50.094;14.338;2023-03-20T05:31:46;10;10;
77892;PMS5003;67087;50.094;14.338;2023-03-20T05:34:12;13;12;
77892;PMS5003;67087;50.094;14.338;2023-03-20T05:36:37;12;11;
77892;PMS5003;67087;50.094;14.338;2023-03-20T05:39:02;12;12;
77892;PMS5003;67087;50.094;14.338;2023-03-20T05:41:27;9;9;
77892;PMS5003;67087;50.094;14.338;2023-03-20T05:43:53;11;11;
77892;PMS5003;67087;50.094;14.338;2023-03-20T05:46:18;10;10;
77892;PMS5003;67087;50.094;14.338;2023-03-20T05:48:43;11;11;
77892;PMS5003;67087;50.094;14.338;2023-03-20T05:51:08;11;11;
77892;PMS5003;67087;50.094;14.338;2023-03-20T05:53:33;10;10;
77892;PMS5003;67087;50.094;14.338;2023-03-20T05:55:58;13;11;
77892;PMS5003;67087;50.094;14.338;2023-03-20T05:58:24;12;11;
77892;PMS5003;67087;50.094;14.338;2023-03-20T06:00:49;14;12;
77892;PMS5003;67087;50.094;14.338;2023-03-20T06:03:14;11;11;
77892;PMS5003;67087;50.094;14.338;2023-03-20T06:05:39;12;12;
77892;PMS5003;67087;50.094;14.338;2023-03-20T06:08:04;12;12;
77892;PMS5003;67087;50.094;14.338;2023-03-20T06:10:30;13;13;
77892;PMS5003;67087;50.094;14.338;2023-03-20T06:12:55;15;14;
77892;PMS5003;67087;50.094;14.338;2023-03-20T06:15:20;12;12;
77892;PMS5003;67087;50.094;14.338;2023-03-20T06:17:46;14;14;
77892;PMS5003;67087;50.094;14.338;2023-03-20T06:20:11;12;12;
77892;PMS5003;67087;50.094;14.338;2023-03-20T06:22:36;12;12;
77892;PMS5003;67087;50.094;14.338;2023-03-20T06:25:01;14;12;
77892;PMS5003;67087;50.094;14.338;2023-03-20T06:27:27;13;12;
77892;PMS5003;67087;50.094;14.338;2023-03-20T06:29:52;12;10;
77892;PMS5003;67087;50.094;14.338;2023-03-20T06:32:17;13;12;
77892;PMS5003;67087;50.094;14.338;2023-03-20T06:34:43;34;33;
77892;PMS5003;67087;50.094;14.338;2023-03-20T06:37:08;43;41;
77892;PMS5003;67087;50.094;14.338;2023-03-20T06:39:34;41;34;
77892;PMS5003;67087;50.094;14.338;2023-03-20T06:41:59;31;27;
77892;PMS5003;67087;50.094;14.338;2023-03-20T06:44:24;32;27;
77892;PMS5003;67087;50.094;14.338;2023-03-20T06:46:50;26;25;
77892;PMS5003;67087;50.094;14.338;2023-03-20T06:49:15;24;23;
77892;PMS5003;67087;50.094;14.338;2023-03-20T06:51:41;25;23;
77892;PMS5003;67087;50.094;14.338;2023-03-20T06:54:07;22;20;
77892;PMS5003;67087;50.094;14.338;2023-03-20T06:56:32;23;22;
77892;PMS5003;67087;50.094;14.338;2023-03-20T06:58:58;20;19;
77892;PMS5003;67087;50.094;14.338;2023-03-20T07:01:24;18;18;
77892;PMS5003;67087;50.094;14.338;2023-03-20T07:03:49;24;21;
77892;PMS5003;67087;50.094;14.338;2023-03-20T07:06:15;19;17;
77892;PMS5003;67087;50.094;14.338;2023-03-20T07:08:40;22;18;
77892;PMS5003;67087;50.094;14.338;2023-03-20T07:11:05;21;20;
77892;PMS5003;67087;50.094;14.338;2023-03-20T07:13:30;19;17;
77892;PMS5003;67087;50.094;14.338;2023-03-20T07:15:55;18;16;
77892;PMS5003;67087;50.094;14.338;2023-03-20T07:18:21;16;16;
77892;PMS5003;67087;50.094;14.338;2023-03-20T07:20:46;21;19;
77892;PMS5003;67087;50.094;14.338;2023-03-20T07:23:12;17;16;
77892;PMS5003;67087;50.094;14.338;2023-03-20T07:25:37;15;14;
77892;PMS5003;67087;50.094;14.338;2023-03-20T07:28:02;20;18;
77892;PMS5003;67087;50.094;14.338;2023-03-20T07:30:27;18;14;
77892;PMS5003;67087;50.094;14.338;2023-03-20T07:32:53;17;16;
77892;PMS5003;67087;50.094;14.338;2023-03-20T07:35:19;15;12;
77892;PMS5003;67087;50.094;14.338;2023-03-20T07:37:44;15;12;
77892;PMS5003;67087;50.094;14.338;2023-03-20T07:40:10;18;16;
77892;PMS5003;67087;50.094;14.338;2023-03-20T07:42:35;16;15;
77892;PMS5003;67087;50.094;14.338;2023-03-20T07:45:01;16;12;
77892;PMS5003;67087;50.094;14.338;2023-03-20T07:47:26;15;14;
77892;PMS5003;67087;50.094;14.338;2023-03-20T07:49:52;14;14;
77892;PMS5003;67087;50.094;14.338;2023-03-20T07:52:18;14;13;
77892;PMS5003;67087;50.094;14.338;2023-03-20T07:54:44;14;14;
77892;PMS5003;67087;50.094;14.338;2023-03-20T07:57:09;14;14;
77892;PMS5003;67087;50.094;14.338;2023-03-20T07:59:35;12;12;
77892;PMS5003;67087;50.094;14.338;2023-03-20T08:02:00;14;12;
77892;PMS5003;67087;50.094;14.338;2023-03-20T08:04:26;14;13;
77892;PMS5003;67087;50.094;14.338;2023-03-20T08:06:51;12;12;
77892;PMS5003;67087;50.094;14.338;2023-03-20T08:09:17;16;14;
77892;PMS5003;67087;50.094;14.338;2023-03-20T08:11:42;14;13;
77892;PMS5003;67087;50.094;14.338;2023-03-20T08:14:08;14;13;
77892;PMS5003;67087;50.094;14.338;2023-03-20T08:16:33;13;13;
77892;PMS5003;67087;50.094;14.338;2023-03-20T08:18:58;12;11;
77892;PMS5003;67087;50.094;14.338;2023-03-20T08:21:23;15;11;
77892;PMS5003;67087;50.094;14.338;2023-03-20T08:23:48;14;13;
77892;PMS5003;67087;50.094;14.338;2023-03-20T08:26:13;11;11;
77892;PMS5003;67087;50.094;14.338;2023-03-20T08:28:39;11;11;
77892;PMS5003;67087;50.094;14.338;2023-03-20T08:31:06;14;13;
77892;PMS5003;67087;50.094;14.338;2023-03-20T08:33:29;9;9;
77892;PMS5003;67087;50.094;14.338;2023-03-20T08:35:55;12;11;
77892;PMS5003;67087;50.094;14.338;2023-03-20T08:38:20;13;12;
77892;PMS5003;67087;50.094;14.338;2023-03-20T08:40:46;13;12;
77892;PMS5003;67087;50.094;14.338;2023-03-20T08:43:11;13;11;
77892;PMS5003;67087;50.094;14.338;2023-03-20T08:45:36;12;12;
77892;PMS5003;67087;50.094;14.338;2023-03-20T08:48:02;12;12;
77892;PMS5003;67087;50.094;14.338;2023-03-20T08:50:27;12;12;
77892;PMS5003;67087;50.094;14.338;2023-03-20T08:52:52;11;11;
77892;PMS5003;67087;50.094;14.338;2023-03-20T08:55:17;9;8;
77892;PMS5003;67087;50.094;14.338;2023-03-20T08:57:42;11;11;
77892;PMS5003;67087;50.094;14.338;2023-03-20T09:00:08;9;9;
77892;PMS5003;67087;50.094;14.338;2023-03-20T09:02:33;10;10;
77892;PMS5003;67087;50.094;14.338;2023-03-20T09:04:58;10;10;
77892;PMS5003;67087;50.094;14.338;2023-03-20T09:07:23;13;13;
77892;PMS5003;67087;50.094;14.338;2023-03-20T09:09:49;12;12;
77892;PMS5003;67087;50.094;14.338;2023-03-20T09:12:15;10;10;
77892;PMS5003;67087;50.094;14.338;2023-03-20T09:14:40;12;11;
77892;PMS5003;67087;50.094;14.338;2023-03-20T09:17:06;12;11;
77892;PMS5003;67087;50.094;14.338;2023-03-20T09:19:31;12;11;
77892;PMS5003;67087;50.094;14.338;2023-03-20T09:21:56;11;10;
77892;PMS5003;67087;50.094;14.338;2023-03-20T09:24:21;12;12;
77892;PMS5003;67087;50.094;14.338;2023-03-20T09:26:46;14;11;
77892;PMS5003;67087;50.094;14.338;2023-03-20T09:29:11;9;9;
77892;PMS5003;67087;50.094;14.338;2023-03-20T09:31:36;12;10;
77892;PMS5003;67087;50.094;14.338;2023-03-20T09:34:02;13;12;
77892;PMS5003;67087;50.094;14.338;2023-03-20T09:36:27;10;10;
77892;PMS5003;67087;50.094;14.338;2023-03-20T09:38:52;10;9;
77892;PMS5003;67087;50.094;14.338;2023-03-20T09:41:18;12;11;
77892;PMS5003;67087;50.094;14.338;2023-03-20T09:43:44;9;9;
77892;PMS5003;67087;50.094;14.338;2023-03-20T09:46:11;9;9;
77892;PMS5003;67087;50.094;14.338;2023-03-20T09:48:34;8;8;
77892;PMS5003;67087;50.094;14.338;2023-03-20T09:51:00;9;9;
77892;PMS5003;67087;50.094;14.338;2023-03-20T09:53:24;11;10;
77892;PMS5003;67087;50.094;14.338;2023-03-20T09:55:48;10;10;
77892;PMS5003;67087;50.094;14.338;2023-03-20T09:58:15;13;11;
77892;PMS5003;67087;50.094;14.338;2023-03-20T10:00:39;11;10;
77892;PMS5003;67087;50.094;14.338;2023-03-20T10:03:04;11;9;
77892;PMS5003;67087;50.094;14.338;2023-03-20T10:05:30;10;10;
77892;PMS5003;67087;50.094;14.338;2023-03-20T10:07:55;14;12;
77892;PMS5003;67087;50.094;14.338;2023-03-20T10:10:20;9;9;
77892;PMS5003;67087;50.094;14.338;2023-03-20T10:12:47;9;9;
77892;PMS5003;67087;50.094;14.338;2023-03-20T10:15:12;8;8;
77892;PMS5003;67087;50.094;14.338;2023-03-20T10:17:39;11;10;
77892;PMS5003;67087;50.094;14.338;2023-03-20T10:20:03;9;9;
77892;PMS5003;67087;50.094;14.338;2023-03-20T10:22:27;9;9;
77892;PMS5003;67087;50.094;14.338;2023-03-20T10:24:53;9;9;
77892;PMS5003;67087;50.094;14.338;2023-03-20T10:27:19;9;9;
77892;PMS5003;67087;50.094;14.338;2023-03-20T10:29:45;10;9;
77892;PMS5003;67087;50.094;14.338;2023-03-20T10:32:07;10;10;
77892;PMS5003;67087;50.094;14.338;2023-03-20T10:34:39;11;11;
77892;PMS5003;67087;50.094;14.338;2023-03-20T10:37:02;11;11;
77892;PMS5003;67087;50.094;14.338;2023-03-20T10:39:27;9;9;
77892;PMS5003;67087;50.094;14.338;2023-03-20T10:41:50;10;8;
77892;PMS5003;67087;50.094;14.338;2023-03-20T10:44:15;9;9;
77892;PMS5003;67087;50.094;14.338;2023-03-20T10:46:39;8;8;
77892;PMS5003;67087;50.094;14.338;2023-03-20T10:49:05;10;9;
77892;PMS5003;67087;50.094;14.338;2023-03-20T10:51:33;8;8;
77892;PMS5003;67087;50.094;14.338;2023-03-20T10:53:55;9;9;
77892;PMS5003;67087;50.094;14.338;2023-03-20T10:56:22;8;8;
77892;PMS5003;67087;50.094;14.338;2023-03-20T10:58:46;7;7;
77892;PMS5003;67087;50.094;14.338;2023-03-20T11:01:09;5;5;
77892;PMS5003;67087;50.094;14.338;2023-03-20T11:03:35;8;7;
77892;PMS5003;67087;50.094;14.338;2023-03-20T11:06:00;11;10;
77892;PMS5003;67087;50.094;14.338;2023-03-20T11:08:29;10;10;
77892;PMS5003;67087;50.094;14.338;2023-03-20T11:10:56;9;8;
77892;PMS5003;67087;50.094;14.338;2023-03-20T11:13:24;8;8;
77892;PMS5003;67087;50.094;14.338;2023-03-20T11:15:42;10;10;
77892;PMS5003;67087;50.094;14.338;2023-03-20T11:18:09;10;10;
77892;PMS5003;67087;50.094;14.338;2023-03-20T11:20:33;8;7;
77892;PMS5003;67087;50.094;14.338;2023-03-20T11:22:58;8;8;
77892;PMS5003;67087;50.094;14.338;2023-03-20T11:25:23;8;6;
77892;PMS5003;67087;50.094;14.338;2023-03-20T11:27:48;8;7;
77892;PMS5003;67087;50.094;14.338;2023-03-20T11:30:13;10;9;
77892;PMS5003;67087;50.094;14.338;2023-03-20T11:32:39;8;7;
77892;PMS5003;67087;50.094;14.338;2023-03-20T11:35:09;8;8;
77892;PMS5003;67087;50.094;14.338;2023-03-20T11:37:32;8;8;
77892;PMS5003;67087;50.094;14.338;2023-03-20T11:39:55;8;8;
77892;PMS5003;67087;50.094;14.338;2023-03-20T11:42:20;11;11;
77892;PMS5003;67087;50.094;14.338;2023-03-20T11:44:45;8;7;
77892;PMS5003;67087;50.094;14.338;2023-03-20T11:47:11;9;9;
77892;PMS5003;67087;50.094;14.338;2023-03-20T11:49:44;6;6;
77892;PMS5003;67087;50.094;14.338;2023-03-20T11:52:00;8;8;
77892;PMS5003;67087;50.094;14.338;2023-03-20T11:54:24;10;9;
77892;PMS5003;67087;50.094;14.338;2023-03-20T11:56:51;6;6;
77892;PMS5003;67087;50.094;14.338;2023-03-20T11:59:15;9;9;
77892;PMS5003;67087;50.094;14.338;2023-03-20T12:01:41;10;10;
77892;PMS5003;67087;50.094;14.338;2023-03-20T12:04:06;9;7;
77892;PMS5003;67087;50.094;14.338;2023-03-20T12:08:58;6;6;
77892;PMS5003;67087;50.094;14.338;2023-03-20T12:13:47;7;7;
77892;PMS5003;67087;50.094;14.338;2023-03-20T12:16:12;7;7;
77892;PMS5003;67087;50.094;14.338;2023-03-20T12:18:38;8;8;
77892;PMS5003;67087;50.094;14.338;2023-03-20T12:21:04;6;6;
77892;PMS5003;67087;50.094;14.338;2023-03-20T12:23:29;6;6;
77892;PMS5003;67087;50.094;14.338;2023-03-20T12:25:54;8;8;
77892;PMS5003;67087;50.094;14.338;2023-03-20T12:28:20;7;6;
77892;PMS5003;67087;50.094;14.338;2023-03-20T12:30:49;8;7;
77892;PMS5003;67087;50.094;14.338;2023-03-20T12:33:10;7;7;
77892;PMS5003;67087;50.094;14.338;2023-03-20T12:35:35;6;6;
77892;PMS5003;67087;50.094;14.338;2023-03-20T12:37:59;7;7;
77892;PMS5003;67087;50.094;14.338;2023-03-20T12:40:26;9;9;
77892;PMS5003;67087;50.094;14.338;2023-03-20T12:42:52;7;7;
77892;PMS5003;67087;50.094;14.338;2023-03-20T12:45:15;9;8;
77892;PMS5003;67087;50.094;14.338;2023-03-20T12:47:43;7;7;
77892;PMS5003;67087;50.094;14.338;2023-03-20T12:50:06;7;7;
77892;PMS5003;67087;50.094;14.338;2023-03-20T12:52:32;7;6;
77892;PMS5003;67087;50.094;14.338;2023-03-20T12:55:00;6;6;
77892;PMS5003;67087;50.094;14.338;2023-03-20T12:57:21;6;6;
77892;PMS5003;67087;50.094;14.338;2023-03-20T12:59:49;8;8;
77892;PMS5003;67087;50.094;14.338;2023-03-20T13:02:15;6;6;
77892;PMS5003;67087;50.094;14.338;2023-03-20T13:07:01;8;7;
77892;PMS5003;67087;50.094;14.338;2023-03-20T13:09:31;6;6;
77892;PMS5003;67087;50.094;14.338;2023-03-20T13:11:54;7;7;
77892;PMS5003;67087;50.094;14.338;2023-03-20T13:14:18;6;6;
77892;PMS5003;67087;50.094;14.338;2023-03-20T13:16:44;12;11;
77892;PMS5003;67087;50.094;14.338;2023-03-20T13:19:08;12;11;
77892;PMS5003;67087;50.094;14.338;2023-03-20T13:21:33;10;8;
77892;PMS5003;67087;50.094;14.338;2023-03-20T13:23:59;8;8;
77892;PMS5003;67087;50.094;14.338;2023-03-20T13:26:27;9;9;
77892;PMS5003;67087;50.094;14.338;2023-03-20T13:28:50;8;8;
77892;PMS5003;67087;50.094;14.338;2023-03-20T13:31:16;8;8;
77892;PMS5003;67087;50.094;14.338;2023-03-20T13:33:41;9;9;
77892;PMS5003;67087;50.094;14.338;2023-03-20T13:36:06;9;9;
77892;PMS5003;67087;50.094;14.338;2023-03-20T13:38:30;8;8;
77892;PMS5003;67087;50.094;14.338;2023-03-20T13:40:57;9;9;
77892;PMS5003;67087;50.094;14.338;2023-03-20T13:43:22;8;8;
77892;PMS5003;67087;50.094;14.338;2023-03-20T13:45:44;11;9;
77892;PMS5003;67087;50.094;14.338;2023-03-20T13:48:18;8;8;
77892;PMS5003;67087;50.094;14.338;2023-03-20T13:50:39;7;7;
77892;PMS5003;67087;50.094;14.338;2023-03-20T13:53:01;10;9;
77892;PMS5003;67087;50.094;14.338;2023-03-20T13:55:28;9;9;
77892;PMS5003;67087;50.094;14.338;2023-03-20T13:57:56;6;5;
77892;PMS5003;67087;50.094;14.338;2023-03-20T14:00:17;8;8;
77892;PMS5003;67087;50.094;14.338;2023-03-20T14:02:45;9;8;
77892;PMS5003;67087;50.094;14.338;2023-03-20T14:05:10;7;7;
77892;PMS5003;67087;50.094;14.338;2023-03-20T14:07:32;10;9;
77892;PMS5003;67087;50.094;14.338;2023-03-20T14:10:01;6;6;
77892;PMS5003;67087;50.094;14.338;2023-03-20T14:12:23;7;6;
77892;PMS5003;67087;50.094;14.338;2023-03-20T14:14:48;9;7;
77892;PMS5003;67087;50.094;14.338;2023-03-20T14:17:14;6;6;
77892;PMS5003;67087;50.094;14.338;2023-03-20T14:19:38;7;7;
77892;PMS5003;67087;50.094;14.338;2023-03-20T14:22:03;7;7;
77892;PMS5003;67087;50.094;14.338;2023-03-20T14:24:28;6;6;
77892;PMS5003;67087;50.094;14.338;2023-03-20T14:26:54;11;10;
77892;PMS5003;67087;50.094;14.338;2023-03-20T14:29:20;8;7;
77892;PMS5003;67087;50.094;14.338;2023-03-20T14:31:45;7;7;
77892;PMS5003;67087;50.094;14.338;2023-03-20T14:34:13;8;8;
77892;PMS5003;67087;50.094;14.338;2023-03-20T14:36:43;7;7;
77892;PMS5003;67087;50.094;14.338;2023-03-20T14:39:04;7;7;
77892;PMS5003;67087;50.094;14.338;2023-03-20T14:41:26;8;7;
77892;PMS5003;67087;50.094;14.338;2023-03-20T14:43:53;6;6;
77892;PMS5003;67087;50.094;14.338;2023-03-20T14:46:17;7;6;
77892;PMS5003;67087;50.094;14.338;2023-03-20T14:48:40;5;5;
77892;PMS5003;67087;50.094;14.338;2023-03-20T14:51:08;8;7;
77892;PMS5003;67087;50.094;14.338;2023-03-20T14:53:31;4;4;
77892;PMS5003;67087;50.094;14.338;2023-03-20T14:56:00;3;3;
77892;PMS5003;67087;50.094;14.338;2023-03-20T14:58:33;6;4;
77892;PMS5003;67087;50.094;14.338;2023-03-20T15:00:47;5;5;
77892;PMS5003;67087;50.094;14.338;2023-03-20T15:03:13;4;4;
77892;PMS5003;67087;50.094;14.338;2023-03-20T15:05:38;3;3;
77892;PMS5003;67087;50.094;14.338;2023-03-20T15:08:03;5;5;
77892;PMS5003;67087;50.094;14.338;2023-03-20T15:10:27;5;5;
77892;PMS5003;67087;50.094;14.338;2023-03-20T15:12:53;8;7;
77892;PMS5003;67087;50.094;14.338;2023-03-20T15:15:23;3;3;
77892;PMS5003;67087;50.094;14.338;2023-03-20T15:17:44;4;4;
77892;PMS5003;67087;50.094;14.338;2023-03-20T15:20:11;5;4;
77892;PMS5003;67087;50.094;14.338;2023-03-20T15:22:34;5;5;
77892;PMS5003;67087;50.094;14.338;2023-03-20T15:24:59;7;6;
77892;PMS5003;67087;50.094;14.338;2023-03-20T15:27:25;6;5;
77892;PMS5003;67087;50.094;14.338;2023-03-20T15:29:50;3;3;
77892;PMS5003;67087;50.094;14.338;2023-03-20T15:32:14;5;4;
77892;PMS5003;67087;50.094;14.338;2023-03-20T15:34:40;5;5;
77892;PMS5003;67087;50.094;14.338;2023-03-20T15:37:05;4;4;
77892;PMS5003;67087;50.094;14.338;2023-03-20T15:39:40;4;4;
77892;PMS5003;67087;50.094;14.338;2023-03-20T15:41:57;3;3;
77892;PMS5003;67087;50.094;14.338;2023-03-20T15:44:21;3;3;
77892;PMS5003;67087;50.094;14.338;2023-03-20T15:46:49;3;2;
77892;PMS5003;67087;50.094;14.338;2023-03-20T15:49:15;3;3;
77892;PMS5003;67087;50.094;14.338;2023-03-20T15:51:36;3;3;
77892;PMS5003;67087;50.094;14.338;2023-03-20T15:54:01;3;3;
77892;PMS5003;67087;50.094;14.338;2023-03-20T15:56:26;3;3;
77892;PMS5003;67087;50.094;14.338;2023-03-20T15:58:51;4;4;
77892;PMS5003;67087;50.094;14.338;2023-03-20T16:01:17;4;4;
77892;PMS5003;67087;50.094;14.338;2023-03-20T16:03:41;4;4;
77892;PMS5003;67087;50.094;14.338;2023-03-20T16:06:07;4;3;
77892;PMS5003;67087;50.094;14.338;2023-03-20T16:08:32;5;4;
77892;PMS5003;67087;50.094;14.338;2023-03-20T16:10:57;5;5;